sensor_id;sensor_type;location;lat;lon;timestamp;temperature;humidity
21849;DHT22;11089;49.852;19.700;2023-07-02T00:00:06;18.60;99.90
21849;DHT22;11089;49.852;19.700;2023-07-02T00:03:07;18.50;99.90
21849;DHT22;11089;49.852;19.700;2023-07-02T00:06:08;18.60;99.90
21849;DHT22;11089;49.852;19.700;2023-07-02T00:09:10;18.60;99.90
21849;DHT22;11089;49.852;19.700;2023-07-02T00:12:13;18.40;99.90
21849;DHT22;11089;49.852;19.700;2023-07-02T00:15:14;18.50;99.90
21849;DHT22;11089;49.852;19.700;2023-07-02T00:18:15;18.50;99.90
21849;DHT22;11089;49.852;19.700;2023-07-02T00:21:16;18.50;99.90
21849;DHT22;11089;49.852;19.700;2023-07-02T00:24:17;18.40;99.90
21849;DHT22;11089;49.852;19.700;2023-07-02T00:27:18;18.40;99.90
21849;DHT22;11089;49.852;19.700;2023-07-02T00:30:19;18.40;99.90
21849;DHT22;11089;49.852;19.700;2023-07-02T00:33:20;18.40;99.90
21849;DHT22;11089;49.852;19.700;2023-07-02T00:36:21;18.40;99.90
21849;DHT22;11089;49.852;19.700;2023-07-02T00:39:22;18.40;99.90
21849;DHT22;11089;49.852;19.700;2023-07-02T00:42:23;18.50;99.90
21849;DHT22;11089;49.852;19.700;2023-07-02T00:45:24;18.50;99.90
21849;DHT22;11089;49.852;19.700;2023-07-02T00:48:29;18.40;99.90
21849;DHT22;11089;49.852;19.700;2023-07-02T00:51:30;18.40;99.90
21849;DHT22;11089;49.852;19.700;2023-07-02T00:54:31;18.30;99.90
21849;DHT22;11089;49.852;19.700;2023-07-02T00:57:32;18.30;99.90
21849;DHT22;11089;49.852;19.700;2023-07-02T01:00:34;18.40;99.90
21849;DHT22;11089;49.852;19.700;2023-07-02T01:03:34;18.40;99.90
21849;DHT22;11089;49.852;19.700;2023-07-02T01:06:38;18.40;99.90
21849;DHT22;11089;49.852;19.700;2023-07-02T01:09:42;18.50;99.90
21849;DHT22;11089;49.852;19.700;2023-07-02T01:12:43;18.40;99.90
21849;DHT22;11089;49.852;19.700;2023-07-02T01:15:46;18.40;99.90
21849;DHT22;11089;49.852;19.700;2023-07-02T01:18:49;18.30;99.90
21849;DHT22;11089;49.852;19.700;2023-07-02T01:21:51;18.20;99.90
21849;DHT22;11089;49.852;19.700;2023-07-02T01:24:53;18.20;99.90
21849;DHT22;11089;49.852;19.700;2023-07-02T01:27:54;18.20;99.90
21849;DHT22;11089;49.852;19.700;2023-07-02T01:30:56;18.10;99.90
21849;DHT22;11089;49.852;19.700;2023-07-02T01:33:57;18.20;99.90
21849;DHT22;11089;49.852;19.700;2023-07-02T01:36:58;18.20;99.90
21849;DHT22;11089;49.852;19.700;2023-07-02T01:39:58;18.30;99.90
21849;DHT22;11089;49.852;19.700;2023-07-02T01:42:59;18.20;99.90
21849;DHT22;11089;49.852;19.700;2023-07-02T01:46:00;18.20;99.90
21849;DHT22;11089;49.852;19.700;2023-07-02T01:49:02;18.20;99.90
21849;DHT22;11089;49.852;19.700;2023-07-02T01:52:04;18.20;99.90
21849;DHT22;11089;49.852;19.700;2023-07-02T01:55:06;18.20;99.90
21849;DHT22;11089;49.852;19.700;2023-07-02T01:58:07;18.20;99.90
21849;DHT22;11089;49.852;19.700;2023-07-02T02:01:08;18.20;99.90
21849;DHT22;11089;49.852;19.700;2023-07-02T02:04:09;18.10;99.90
21849;DHT22;11089;49.852;19.700;2023-07-02T02:07:11;18.20;99.90
21849;DHT22;11089;49.852;19.700;2023-07-02T02:10:11;18.20;99.90
21849;DHT22;11089;49.852;19.700;2023-07-02T02:13:14;18.20;99.90
21849;DHT22;11089;49.852;19.700;2023-07-02T02:16:15;18.10;99.90
21849;DHT22;11089;49.852;19.700;2023-07-02T02:19:16;18.20;99.90
21849;DHT22;11089;49.852;19.700;2023-07-02T02:22:17;18.20;99.90
21849;DHT22;11089;49.852;19.700;2023-07-02T02:25:18;18.10;99.90
21849;DHT22;11089;49.852;19.700;2023-07-02T02:28:19;18.10;99.90
21849;DHT22;11089;49.852;19.700;2023-07-02T02:31:20;18.10;99.90
21849;DHT22;11089;49.852;19.700;2023-07-02T02:34:21;18.10;99.90
21849;DHT22;11089;49.852;19.700;2023-07-02T02:37:22;18.20;99.90
21849;DHT22;11089;49.852;19.700;2023-07-02T02:40:24;18.10;99.90
21849;DHT22;11089;49.852;19.700;2023-07-02T02:43:25;18.20;99.90
21849;DHT22;11089;49.852;19.700;2023-07-02T02:46:25;18.20;99.90
21849;DHT22;11089;49.852;19.700;2023-07-02T02:49:26;18.20;99.90
21849;DHT22;11089;49.852;19.700;2023-07-02T02:52:27;18.20;99.90
21849;DHT22;11089;49.852;19.700;2023-07-02T02:55:28;18.20;99.90
21849;DHT22;11089;49.852;19.700;2023-07-02T02:58:29;18.20;99.90
21849;DHT22;11089;49.852;19.700;2023-07-02T03:01:30;18.20;99.90
21849;DHT22;11089;49.852;19.700;2023-07-02T03:04:32;18.20;99.90
21849;DHT22;11089;49.852;19.700;2023-07-02T03:07:33;18.20;99.90
21849;DHT22;11089;49.852;19.700;2023-07-02T03:10:34;18.20;99.90
21849;DHT22;11089;49.852;19.700;2023-07-02T03:13:35;18.20;99.90
21849;DHT22;11089;49.852;19.700;2023-07-02T03:16:37;18.20;99.90
21849;DHT22;11089;49.852;19.700;2023-07-02T03:19:37;18.20;99.90
21849;DHT22;11089;49.852;19.700;2023-07-02T03:22:38;18.20;99.90
21849;DHT22;11089;49.852;19.700;2023-07-02T03:25:39;18.20;99.90
21849;DHT22;11089;49.852;19.700;2023-07-02T03:28:40;18.20;99.90
21849;DHT22;11089;49.852;19.700;2023-07-02T03:31:41;18.10;99.90
21849;DHT22;11089;49.852;19.700;2023-07-02T03:34:42;18.10;99.90
21849;DHT22;11089;49.852;19.700;2023-07-02T03:37:43;18.00;99.90
21849;DHT22;11089;49.852;19.700;2023-07-02T03:40:44;18.00;99.90
21849;DHT22;11089;49.852;19.700;2023-07-02T03:43:45;17.90;99.90
21849;DHT22;11089;49.852;19.700;2023-07-02T03:46:48;17.90;99.90
21849;DHT22;11089;49.852;19.700;2023-07-02T03:49:49;18.00;99.90
21849;DHT22;11089;49.852;19.700;2023-07-02T03:52:50;18.00;99.90
21849;DHT22;11089;49.852;19.700;2023-07-02T03:55:50;18.00;99.90
21849;DHT22;11089;49.852;19.700;2023-07-02T03:58:52;18.00;99.90
21849;DHT22;11089;49.852;19.700;2023-07-02T04:01:53;18.00;99.90
21849;DHT22;11089;49.852;19.700;2023-07-02T04:04:53;17.90;99.90
21849;DHT22;11089;49.852;19.700;2023-07-02T04:07:54;17.90;99.90
21849;DHT22;11089;49.852;19.700;2023-07-02T04:10:55;17.90;99.90
21849;DHT22;11089;49.852;19.700;2023-07-02T04:13:56;17.90;99.90
21849;DHT22;11089;49.852;19.700;2023-07-02T04:16:57;18.00;99.90
21849;DHT22;11089;49.852;19.700;2023-07-02T04:20:00;18.10;99.90
21849;DHT22;11089;49.852;19.700;2023-07-02T04:23:02;18.10;99.90
21849;DHT22;11089;49.852;19.700;2023-07-02T04:26:03;18.20;99.90
21849;DHT22;11089;49.852;19.700;2023-07-02T04:29:04;18.20;99.90
21849;DHT22;11089;49.852;19.700;2023-07-02T04:32:06;18.20;99.90
21849;DHT22;11089;49.852;19.700;2023-07-02T04:35:08;18.20;99.90
21849;DHT22;11089;49.852;19.700;2023-07-02T04:38:09;18.30;99.90
21849;DHT22;11089;49.852;19.700;2023-07-02T04:41:10;18.30;99.90
21849;DHT22;11089;49.852;19.700;2023-07-02T04:44:11;18.30;99.90
21849;DHT22;11089;49.852;19.700;2023-07-02T04:47:12;18.30;99.90
21849;DHT22;11089;49.852;19.700;2023-07-02T04:50:18;18.40;99.90
21849;DHT22;11089;49.852;19.700;2023-07-02T04:53:19;18.40;99.90
21849;DHT22;11089;49.852;19.700;2023-07-02T04:56:20;18.50;99.90
21849;DHT22;11089;49.852;19.700;2023-07-02T04:59:21;18.50;99.90
21849;DHT22;11089;49.852;19.700;2023-07-02T05:02:22;18.50;99.90
21849;DHT22;11089;49.852;19.700;2023-07-02T05:05:23;18.50;99.90
21849;DHT22;11089;49.852;19.700;2023-07-02T05:08:24;18.60;99.90
21849;DHT22;11089;49.852;19.700;2023-07-02T05:11:25;18.60;99.90
21849;DHT22;11089;49.852;19.700;2023-07-02T05:14:26;18.70;99.90
21849;DHT22;11089;49.852;19.700;2023-07-02T05:17:27;18.70;99.90
21849;DHT22;11089;49.852;19.700;2023-07-02T05:20:28;18.70;99.90
21849;DHT22;11089;49.852;19.700;2023-07-02T05:23:29;18.80;99.90
21849;DHT22;11089;49.852;19.700;2023-07-02T05:26:30;18.90;99.90
21849;DHT22;11089;49.852;19.700;2023-07-02T05:29:31;19.00;99.90
21849;DHT22;11089;49.852;19.700;2023-07-02T05:32:34;19.10;99.90
21849;DHT22;11089;49.852;19.700;2023-07-02T05:35:35;19.20;99.90
21849;DHT22;11089;49.852;19.700;2023-07-02T05:38:36;19.30;99.90
21849;DHT22;11089;49.852;19.700;2023-07-02T05:41:37;19.30;1.00
21849;DHT22;11089;49.852;19.700;2023-07-02T05:44:38;19.40;1.00
21849;DHT22;11089;49.852;19.700;2023-07-02T05:47:39;19.40;99.90
21849;DHT22;11089;49.852;19.700;2023-07-02T05:50:40;19.50;99.90
21849;DHT22;11089;49.852;19.700;2023-07-02T05:53:41;19.60;1.00
21849;DHT22;11089;49.852;19.700;2023-07-02T05:56:41;19.70;99.90
21849;DHT22;11089;49.852;19.700;2023-07-02T05:59:42;19.80;99.90
21849;DHT22;11089;49.852;19.700;2023-07-02T06:02:46;20.00;99.90
21849;DHT22;11089;49.852;19.700;2023-07-02T06:05:48;20.10;1.00
21849;DHT22;11089;49.852;19.700;2023-07-02T06:08:50;20.20;99.90
21849;DHT22;11089;49.852;19.700;2023-07-02T06:11:50;20.30;1.00
21849;DHT22;11089;49.852;19.700;2023-07-02T06:14:51;20.30;1.00
21849;DHT22;11089;49.852;19.700;2023-07-02T06:17:52;20.40;99.90
21849;DHT22;11089;49.852;19.700;2023-07-02T06:20:53;20.50;99.90
21849;DHT22;11089;49.852;19.700;2023-07-02T06:23:55;20.60;1.00
21849;DHT22;11089;49.852;19.700;2023-07-02T06:26:56;20.70;1.00
21849;DHT22;11089;49.852;19.700;2023-07-02T06:29:57;20.80;1.00
21849;DHT22;11089;49.852;19.700;2023-07-02T06:32:58;20.90;99.90
21849;DHT22;11089;49.852;19.700;2023-07-02T06:35:59;21.00;1.00
21849;DHT22;11089;49.852;19.700;2023-07-02T06:39:00;21.20;1.00
21849;DHT22;11089;49.852;19.700;2023-07-02T06:42:01;21.20;1.00
21849;DHT22;11089;49.852;19.700;2023-07-02T06:45:03;21.20;10.20
21849;DHT22;11089;49.852;19.700;2023-07-02T06:48:05;21.20;1.00
21849;DHT22;11089;49.852;19.700;2023-07-02T06:51:06;21.20;99.90
21849;DHT22;11089;49.852;19.700;2023-07-02T06:54:08;21.30;1.00
21849;DHT22;11089;49.852;19.700;2023-07-02T06:57:09;21.20;1.00
21849;DHT22;11089;49.852;19.700;2023-07-02T07:00:11;21.20;1.00
21849;DHT22;11089;49.852;19.700;2023-07-02T07:03:12;21.20;1.00
21849;DHT22;11089;49.852;19.700;2023-07-02T07:06:13;21.40;1.00
21849;DHT22;11089;49.852;19.700;2023-07-02T07:09:14;21.60;1.00
21849;DHT22;11089;49.852;19.700;2023-07-02T07:12:15;21.80;1.00
21849;DHT22;11089;49.852;19.700;2023-07-02T07:15:15;22.00;1.00
21849;DHT22;11089;49.852;19.700;2023-07-02T07:18:16;22.20;92.10
21849;DHT22;11089;49.852;19.700;2023-07-02T07:21:19;22.30;99.90
21849;DHT22;11089;49.852;19.700;2023-07-02T07:24:20;22.40;99.90
21849;DHT22;11089;49.852;19.700;2023-07-02T07:27:21;22.50;1.00
21849;DHT22;11089;49.852;19.700;2023-07-02T07:30:22;22.70;1.00
21849;DHT22;11089;49.852;19.700;2023-07-02T07:33:23;22.60;99.90
21849;DHT22;11089;49.852;19.700;2023-07-02T07:36:24;22.70;99.90
21849;DHT22;11089;49.852;19.700;2023-07-02T07:39:25;22.90;1.00
21849;DHT22;11089;49.852;19.700;2023-07-02T07:42:26;22.90;1.00
21849;DHT22;11089;49.852;19.700;2023-07-02T07:45:27;23.10;99.90
21849;DHT22;11089;49.852;19.700;2023-07-02T07:48:28;23.10;1.00
21849;DHT22;11089;49.852;19.700;2023-07-02T07:51:29;23.20;1.00
21849;DHT22;11089;49.852;19.700;2023-07-02T07:54:30;23.40;1.00
21849;DHT22;11089;49.852;19.700;2023-07-02T07:57:31;23.50;1.00
21849;DHT22;11089;49.852;19.700;2023-07-02T08:00:32;23.40;1.00
21849;DHT22;11089;49.852;19.700;2023-07-02T08:03:33;23.40;1.00
21849;DHT22;11089;49.852;19.700;2023-07-02T08:06:34;23.40;1.00
21849;DHT22;11089;49.852;19.700;2023-07-02T08:09:35;23.60;1.00
21849;DHT22;11089;49.852;19.700;2023-07-02T08:12:36;23.80;99.90
21849;DHT22;11089;49.852;19.700;2023-07-02T08:15:37;23.50;99.90
21849;DHT22;11089;49.852;19.700;2023-07-02T08:18:38;23.40;1.00
21849;DHT22;11089;49.852;19.700;2023-07-02T08:21:39;23.40;1.00
21849;DHT22;11089;49.852;19.700;2023-07-02T08:24:40;23.60;1.00
21849;DHT22;11089;49.852;19.700;2023-07-02T08:27:41;23.60;99.90
21849;DHT22;11089;49.852;19.700;2023-07-02T08:30:42;23.80;99.90
21849;DHT22;11089;49.852;19.700;2023-07-02T08:33:43;23.80;99.90
21849;DHT22;11089;49.852;19.700;2023-07-02T08:36:44;23.90;99.90
21849;DHT22;11089;49.852;19.700;2023-07-02T08:39:45;24.00;99.90
21849;DHT22;11089;49.852;19.700;2023-07-02T08:42:46;24.10;1.00
21849;DHT22;11089;49.852;19.700;2023-07-02T08:45:48;24.10;99.90
21849;DHT22;11089;49.852;19.700;2023-07-02T08:48:49;24.20;99.90
21849;DHT22;11089;49.852;19.700;2023-07-02T08:51:50;24.40;99.90
21849;DHT22;11089;49.852;19.700;2023-07-02T08:54:51;24.50;99.90
21849;DHT22;11089;49.852;19.700;2023-07-02T08:57:54;24.30;99.90
21849;DHT22;11089;49.852;19.700;2023-07-02T09:01:10;24.20;99.90
21849;DHT22;11089;49.852;19.700;2023-07-02T09:04:16;24.20;99.90
21849;DHT22;11089;49.852;19.700;2023-07-02T09:07:17;23.90;99.90
21849;DHT22;11089;49.852;19.700;2023-07-02T09:10:28;23.60;89.60
21849;DHT22;11089;49.852;19.700;2023-07-02T09:13:29;23.60;99.90
21849;DHT22;11089;49.852;19.700;2023-07-02T09:16:32;23.50;99.90
21849;DHT22;11089;49.852;19.700;2023-07-02T09:19:34;23.40;99.90
21849;DHT22;11089;49.852;19.700;2023-07-02T09:22:35;23.20;99.90
21849;DHT22;11089;49.852;19.700;2023-07-02T09:25:38;23.20;99.90
21849;DHT22;11089;49.852;19.700;2023-07-02T09:28:40;23.10;99.90
21849;DHT22;11089;49.852;19.700;2023-07-02T09:31:47;23.30;99.90
21849;DHT22;11089;49.852;19.700;2023-07-02T09:34:48;23.60;99.90
21849;DHT22;11089;49.852;19.700;2023-07-02T09:37:49;23.50;99.90
21849;DHT22;11089;49.852;19.700;2023-07-02T09:40:52;23.40;99.90
21849;DHT22;11089;49.852;19.700;2023-07-02T09:43:54;23.50;1.00
21849;DHT22;11089;49.852;19.700;2023-07-02T09:47:02;23.60;99.90
21849;DHT22;11089;49.852;19.700;2023-07-02T09:50:05;23.70;99.90
21849;DHT22;11089;49.852;19.700;2023-07-02T09:53:06;23.80;99.90
21849;DHT22;11089;49.852;19.700;2023-07-02T09:56:08;23.80;99.90
21849;DHT22;11089;49.852;19.700;2023-07-02T09:59:09;23.60;99.90
21849;DHT22;11089;49.852;19.700;2023-07-02T10:02:12;23.50;99.90
21849;DHT22;11089;49.852;19.700;2023-07-02T10:05:31;23.30;1.00
21849;DHT22;11089;49.852;19.700;2023-07-02T10:08:33;23.20;1.00
21849;DHT22;11089;49.852;19.700;2023-07-02T10:11:34;23.00;1.00
21849;DHT22;11089;49.852;19.700;2023-07-02T10:14:42;22.80;1.00
21849;DHT22;11089;49.852;19.700;2023-07-02T10:17:58;23.00;1.00
21849;DHT22;11089;49.852;19.700;2023-07-02T10:20:59;23.20;1.00
21849;DHT22;11089;49.852;19.700;2023-07-02T10:24:12;23.30;1.00
21849;DHT22;11089;49.852;19.700;2023-07-02T10:27:13;23.30;1.00
21849;DHT22;11089;49.852;19.700;2023-07-02T10:30:14;23.50;1.00
21849;DHT22;11089;49.852;19.700;2023-07-02T10:33:17;23.60;1.00
21849;DHT22;11089;49.852;19.700;2023-07-02T10:36:22;23.60;1.00
21849;DHT22;11089;49.852;19.700;2023-07-02T10:39:24;23.60;1.00
21849;DHT22;11089;49.852;19.700;2023-07-02T10:42:25;23.70;1.00
21849;DHT22;11089;49.852;19.700;2023-07-02T10:45:33;23.70;1.00
21849;DHT22;11089;49.852;19.700;2023-07-02T10:48:34;23.50;1.00
21849;DHT22;11089;49.852;19.700;2023-07-02T10:51:35;23.30;1.00
21849;DHT22;11089;49.852;19.700;2023-07-02T10:54:43;23.30;1.00
21849;DHT22;11089;49.852;19.700;2023-07-02T10:57:46;23.60;1.00
21849;DHT22;11089;49.852;19.700;2023-07-02T11:00:50;24.10;1.00
21849;DHT22;11089;49.852;19.700;2023-07-02T11:04:05;24.40;1.00
21849;DHT22;11089;49.852;19.700;2023-07-02T11:07:06;24.60;99.90
21849;DHT22;11089;49.852;19.700;2023-07-02T11:10:08;25.00;99.90
21849;DHT22;11089;49.852;19.700;2023-07-02T11:13:19;25.20;99.90
21849;DHT22;11089;49.852;19.700;2023-07-02T11:16:28;25.60;99.90
21849;DHT22;11089;49.852;19.700;2023-07-02T11:19:30;25.90;9.80
21849;DHT22;11089;49.852;19.700;2023-07-02T11:22:35;26.20;1.00
21849;DHT22;11089;49.852;19.700;2023-07-02T11:25:36;26.20;1.00
21849;DHT22;11089;49.852;19.700;2023-07-02T11:28:48;26.40;1.00
21849;DHT22;11089;49.852;19.700;2023-07-02T11:31:51;26.40;1.00
21849;DHT22;11089;49.852;19.700;2023-07-02T11:34:55;26.40;1.00
21849;DHT22;11089;49.852;19.700;2023-07-02T11:37:57;26.50;1.00
21849;DHT22;11089;49.852;19.700;2023-07-02T11:40:58;26.50;1.00
21849;DHT22;11089;49.852;19.700;2023-07-02T11:43:59;26.60;1.00
21849;DHT22;11089;49.852;19.700;2023-07-02T11:47:00;26.60;1.00
21849;DHT22;11089;49.852;19.700;2023-07-02T11:50:00;26.60;1.00
21849;DHT22;11089;49.852;19.700;2023-07-02T11:53:02;26.70;1.00
21849;DHT22;11089;49.852;19.700;2023-07-02T11:56:03;26.90;1.00
21849;DHT22;11089;49.852;19.700;2023-07-02T11:59:04;26.80;1.00
21849;DHT22;11089;49.852;19.700;2023-07-02T12:02:05;26.90;1.00
21849;DHT22;11089;49.852;19.700;2023-07-02T12:05:06;26.90;1.00
21849;DHT22;11089;49.852;19.700;2023-07-02T12:08:08;27.00;1.00
21849;DHT22;11089;49.852;19.700;2023-07-02T12:11:10;27.30;1.00
21849;DHT22;11089;49.852;19.700;2023-07-02T12:14:12;27.30;1.00
21849;DHT22;11089;49.852;19.700;2023-07-02T12:17:13;26.90;1.00
21849;DHT22;11089;49.852;19.700;2023-07-02T12:20:14;26.70;1.00
21849;DHT22;11089;49.852;19.700;2023-07-02T12:23:14;26.70;1.00
21849;DHT22;11089;49.852;19.700;2023-07-02T12:26:15;26.80;1.00
21849;DHT22;11089;49.852;19.700;2023-07-02T12:29:16;26.70;1.00
21849;DHT22;11089;49.852;19.700;2023-07-02T12:32:17;26.80;1.00
21849;DHT22;11089;49.852;19.700;2023-07-02T12:35:18;26.80;1.00
21849;DHT22;11089;49.852;19.700;2023-07-02T12:38:19;27.10;1.00
21849;DHT22;11089;49.852;19.700;2023-07-02T12:41:20;27.30;1.00
21849;DHT22;11089;49.852;19.700;2023-07-02T12:44:21;27.20;1.00
21849;DHT22;11089;49.852;19.700;2023-07-02T12:47:22;27.40;1.00
21849;DHT22;11089;49.852;19.700;2023-07-02T12:50:23;28.40;1.00
21849;DHT22;11089;49.852;19.700;2023-07-02T12:53:38;27.10;1.00
21849;DHT22;11089;49.852;19.700;2023-07-02T12:56:44;27.10;1.00
21849;DHT22;11089;49.852;19.700;2023-07-02T12:59:50;27.10;1.00
21849;DHT22;11089;49.852;19.700;2023-07-02T13:02:56;27.30;1.00
21849;DHT22;11089;49.852;19.700;2023-07-02T13:06:00;27.30;1.00
21849;DHT22;11089;49.852;19.700;2023-07-02T13:09:12;27.30;1.00
21849;DHT22;11089;49.852;19.700;2023-07-02T13:12:21;27.40;1.00
21849;DHT22;11089;49.852;19.700;2023-07-02T13:15:25;27.20;1.00
21849;DHT22;11089;49.852;19.700;2023-07-02T13:18:31;27.00;1.00
21849;DHT22;11089;49.852;19.700;2023-07-02T13:21:38;26.90;1.00
21849;DHT22;11089;49.852;19.700;2023-07-02T13:24:42;26.90;1.00
21849;DHT22;11089;49.852;19.700;2023-07-02T13:27:45;26.90;1.00
21849;DHT22;11089;49.852;19.700;2023-07-02T13:30:51;26.50;1.00
21849;DHT22;11089;49.852;19.700;2023-07-02T13:33:54;26.20;1.00
21849;DHT22;11089;49.852;19.700;2023-07-02T13:37:05;26.10;1.00
21849;DHT22;11089;49.852;19.700;2023-07-02T13:40:12;26.00;1.00
21849;DHT22;11089;49.852;19.700;2023-07-02T13:43:17;26.10;1.00
21849;DHT22;11089;49.852;19.700;2023-07-02T13:46:43;26.30;1.00
21849;DHT22;11089;49.852;19.700;2023-07-02T13:49:48;26.30;1.00
21849;DHT22;11089;49.852;19.700;2023-07-02T13:52:54;26.40;1.00
21849;DHT22;11089;49.852;19.700;2023-07-02T13:56:01;26.50;1.00
21849;DHT22;11089;49.852;19.700;2023-07-02T13:59:05;26.30;1.00
21849;DHT22;11089;49.852;19.700;2023-07-02T14:02:10;25.80;1.00
21849;DHT22;11089;49.852;19.700;2023-07-02T14:05:16;25.10;1.00
21849;DHT22;11089;49.852;19.700;2023-07-02T14:08:21;24.70;1.00
21849;DHT22;11089;49.852;19.700;2023-07-02T14:11:26;24.10;1.00
21849;DHT22;11089;49.852;19.700;2023-07-02T14:14:34;24.00;1.00
21849;DHT22;11089;49.852;19.700;2023-07-02T14:17:38;23.90;1.00
21849;DHT22;11089;49.852;19.700;2023-07-02T14:20:40;23.90;1.00
21849;DHT22;11089;49.852;19.700;2023-07-02T14:23:46;23.80;1.00
21849;DHT22;11089;49.852;19.700;2023-07-02T14:26:54;23.70;1.00
21849;DHT22;11089;49.852;19.700;2023-07-02T14:29:57;23.40;1.00
21849;DHT22;11089;49.852;19.700;2023-07-02T14:33:00;23.10;1.00
21849;DHT22;11089;49.852;19.700;2023-07-02T14:36:03;22.80;55.40
21849;DHT22;11089;49.852;19.700;2023-07-02T14:39:07;22.60;99.90
21849;DHT22;11089;49.852;19.700;2023-07-02T14:42:09;22.40;99.90
21849;DHT22;11089;49.852;19.700;2023-07-02T14:45:16;22.10;1.00
21849;DHT22;11089;49.852;19.700;2023-07-02T14:48:22;22.00;1.00
21849;DHT22;11089;49.852;19.700;2023-07-02T14:51:24;21.70;1.00
21849;DHT22;11089;49.852;19.700;2023-07-02T14:54:27;21.60;15.30
21849;DHT22;11089;49.852;19.700;2023-07-02T14:57:32;21.50;1.00
21849;DHT22;11089;49.852;19.700;2023-07-02T15:00:36;21.20;99.90
21849;DHT22;11089;49.852;19.700;2023-07-02T15:03:38;21.00;1.00
21849;DHT22;11089;49.852;19.700;2023-07-02T15:06:41;20.80;1.00
21849;DHT22;11089;49.852;19.700;2023-07-02T15:09:44;20.70;1.00
21849;DHT22;11089;49.852;19.700;2023-07-02T15:12:48;20.70;22.80
21849;DHT22;11089;49.852;19.700;2023-07-02T15:15:51;20.70;1.00
21849;DHT22;11089;49.852;19.700;2023-07-02T15:18:58;20.90;1.00
21849;DHT22;11089;49.852;19.700;2023-07-02T15:22:05;21.10;99.90
21849;DHT22;11089;49.852;19.700;2023-07-02T15:25:10;21.00;99.90
21849;DHT22;11089;49.852;19.700;2023-07-02T15:28:16;20.80;1.00
21849;DHT22;11089;49.852;19.700;2023-07-02T15:31:19;20.70;1.00
21849;DHT22;11089;49.852;19.700;2023-07-02T15:34:24;20.70;99.90
21849;DHT22;11089;49.852;19.700;2023-07-02T15:37:28;20.70;1.00
21849;DHT22;11089;49.852;19.700;2023-07-02T15:40:31;20.80;1.00
21849;DHT22;11089;49.852;19.700;2023-07-02T15:43:40;20.80;1.00
21849;DHT22;11089;49.852;19.700;2023-07-02T15:46:44;20.70;1.00
21849;DHT22;11089;49.852;19.700;2023-07-02T15:49:47;20.70;1.00
21849;DHT22;11089;49.852;19.700;2023-07-02T15:52:53;20.70;1.00
21849;DHT22;11089;49.852;19.700;2023-07-02T15:55:56;20.70;1.00
21849;DHT22;11089;49.852;19.700;2023-07-02T15:59:01;20.80;1.00
21849;DHT22;11089;49.852;19.700;2023-07-02T16:02:04;21.00;1.00
21849;DHT22;11089;49.852;19.700;2023-07-02T16:05:10;21.10;1.00
21849;DHT22;11089;49.852;19.700;2023-07-02T16:08:20;21.10;1.00
21849;DHT22;11089;49.852;19.700;2023-07-02T16:11:22;21.10;48.30
21849;DHT22;11089;49.852;19.700;2023-07-02T16:14:27;21.00;99.90
21849;DHT22;11089;49.852;19.700;2023-07-02T16:17:30;20.90;1.00
21849;DHT22;11089;49.852;19.700;2023-07-02T16:20:36;20.90;1.00
21849;DHT22;11089;49.852;19.700;2023-07-02T16:23:40;21.00;1.00
21849;DHT22;11089;49.852;19.700;2023-07-02T16:26:43;21.10;1.00
21849;DHT22;11089;49.852;19.700;2023-07-02T16:29:46;21.00;1.00
21849;DHT22;11089;49.852;19.700;2023-07-02T16:32:51;21.00;1.00
21849;DHT22;11089;49.852;19.700;2023-07-02T16:35:56;21.10;1.00
21849;DHT22;11089;49.852;19.700;2023-07-02T16:38:59;21.00;1.00
21849;DHT22;11089;49.852;19.700;2023-07-02T16:42:02;20.90;85.10
21849;DHT22;11089;49.852;19.700;2023-07-02T16:45:05;20.90;99.90
21849;DHT22;11089;49.852;19.700;2023-07-02T16:48:09;20.80;99.90
21849;DHT22;11089;49.852;19.700;2023-07-02T16:51:12;20.90;1.00
21849;DHT22;11089;49.852;19.700;2023-07-02T16:54:17;20.90;67.50
21849;DHT22;11089;49.852;19.700;2023-07-02T16:57:20;20.80;99.90
21849;DHT22;11089;49.852;19.700;2023-07-02T17:00:22;20.80;99.90
21849;DHT22;11089;49.852;19.700;2023-07-02T17:03:26;20.70;96.80
21849;DHT22;11089;49.852;19.700;2023-07-02T17:06:32;20.70;53.40
21849;DHT22;11089;49.852;19.700;2023-07-02T17:09:42;20.70;1.00
21849;DHT22;11089;49.852;19.700;2023-07-02T17:12:47;20.70;2.40
21849;DHT22;11089;49.852;19.700;2023-07-02T17:15:52;20.70;1.00
21849;DHT22;11089;49.852;19.700;2023-07-02T17:18:56;20.60;1.00
21849;DHT22;11089;49.852;19.700;2023-07-02T17:22:04;20.60;1.00
21849;DHT22;11089;49.852;19.700;2023-07-02T17:25:10;20.50;99.90
21849;DHT22;11089;49.852;19.700;2023-07-02T17:28:14;20.50;99.90
21849;DHT22;11089;49.852;19.700;2023-07-02T17:31:20;20.50;99.90
21849;DHT22;11089;49.852;19.700;2023-07-02T17:34:24;20.50;1.00
21849;DHT22;11089;49.852;19.700;2023-07-02T17:37:27;20.40;1.00
21849;DHT22;11089;49.852;19.700;2023-07-02T17:40:30;20.40;1.00
21849;DHT22;11089;49.852;19.700;2023-07-02T17:43:34;20.40;1.00
21849;DHT22;11089;49.852;19.700;2023-07-02T17:46:45;20.30;1.00
21849;DHT22;11089;49.852;19.700;2023-07-02T17:49:48;20.30;1.00
21849;DHT22;11089;49.852;19.700;2023-07-02T17:52:51;20.30;1.00
21849;DHT22;11089;49.852;19.700;2023-07-02T17:55:54;20.30;1.00
21849;DHT22;11089;49.852;19.700;2023-07-02T17:58:57;20.20;47.50
21849;DHT22;11089;49.852;19.700;2023-07-02T18:02:05;20.20;1.00
21849;DHT22;11089;49.852;19.700;2023-07-02T18:05:12;20.20;99.90
21849;DHT22;11089;49.852;19.700;2023-07-02T18:08:15;20.10;99.90
21849;DHT22;11089;49.852;19.700;2023-07-02T18:11:18;20.10;99.90
21849;DHT22;11089;49.852;19.700;2023-07-02T18:14:20;20.10;1.00
21849;DHT22;11089;49.852;19.700;2023-07-02T18:17:25;20.10;1.00
21849;DHT22;11089;49.852;19.700;2023-07-02T18:20:28;19.90;1.00
21849;DHT22;11089;49.852;19.700;2023-07-02T18:23:31;19.90;1.00
21849;DHT22;11089;49.852;19.700;2023-07-02T18:26:33;19.90;1.00
21849;DHT22;11089;49.852;19.700;2023-07-02T18:29:36;19.80;1.00
21849;DHT22;11089;49.852;19.700;2023-07-02T18:32:39;19.90;1.00
21849;DHT22;11089;49.852;19.700;2023-07-02T18:35:43;19.90;1.00
21849;DHT22;11089;49.852;19.700;2023-07-02T18:38:48;19.80;1.00
21849;DHT22;11089;49.852;19.700;2023-07-02T18:41:51;19.70;1.00
21849;DHT22;11089;49.852;19.700;2023-07-02T18:44:53;19.70;1.00
21849;DHT22;11089;49.852;19.700;2023-07-02T18:47:57;19.70;1.00
21849;DHT22;11089;49.852;19.700;2023-07-02T18:51:04;19.60;1.00
21849;DHT22;11089;49.852;19.700;2023-07-02T18:54:07;19.50;1.00
21849;DHT22;11089;49.852;19.700;2023-07-02T18:57:11;19.40;1.00
21849;DHT22;11089;49.852;19.700;2023-07-02T19:00:14;19.30;1.00
21849;DHT22;11089;49.852;19.700;2023-07-02T19:03:18;19.30;1.00